createdAt,value
2023-03-23T00:01:17.276Z,28.05
2023-03-23T01:44:27.321Z,27.70
2023-03-23T01:52:27.681Z,27.65
2023-03-23T02:00:28.102Z,27.66
2023-03-23T02:20:28.367Z,27.63
2023-03-23T02:28:28.288Z,27.62
2023-03-23T02:36:28.215Z,27.59
2023-03-23T02:44:28.136Z,27.58
2023-03-23T02:52:28.335Z,27.53
2023-03-23T03:00:28.709Z,27.49
2023-03-23T03:08:29.143Z,27.44
2023-03-23T03:16:29.065Z,27.43
2023-03-23T03:24:28.989Z,27.42
2023-03-23T03:32:28.921Z,27.39
2023-03-23T03:40:29.118Z,27.42
2023-03-23T03:48:28.944Z,27.40
2023-03-23T03:56:28.865Z,27.36
2023-03-23T04:00:29.836Z,27.35
2023-03-23T04:04:29.796Z,27.32
2023-03-23T04:08:29.919Z,27.35
2023-03-23T04:12:29.852Z,27.32
2023-03-23T04:16:29.808Z,27.35
2023-03-23T04:20:31.497Z,27.31
2023-03-23T04:24:56.106Z,27.34
2023-03-23T04:28:29.702Z,27.31
2023-03-23T04:32:29.671Z,27.28
2023-03-23T04:36:56.508Z,27.28
2023-03-23T04:40:29.647Z,27.31
2023-03-23T04:44:29.561Z,27.26
2023-03-23T04:48:29.522Z,27.28
2023-03-23T04:52:29.492Z,27.27
2023-03-23T04:56:29.484Z,27.27
2023-03-23T05:00:29.420Z,27.24
2023-03-23T05:04:29.484Z,27.27
2023-03-23T05:08:29.408Z,27.19
2023-03-23T05:12:29.399Z,27.17
2023-03-23T05:16:29.330Z,27.17
2023-03-23T05:20:29.303Z,27.22
2023-03-23T05:24:29.257Z,27.18
2023-03-23T05:28:29.238Z,27.21
2023-03-23T05:32:29.233Z,27.15
2023-03-23T05:36:29.457Z,27.20
2023-03-23T05:40:29.416Z,27.16
2023-03-23T05:44:29.397Z,27.17
2023-03-23T05:48:29.339Z,27.15
2023-03-23T05:52:29.292Z,27.12
2023-03-23T05:56:29.257Z,27.16
2023-03-23T06:00:29.244Z,27.12
2023-03-23T06:04:29.180Z,27.11
2023-03-23T06:08:29.155Z,27.10
2023-03-23T06:12:29.114Z,27.11
2023-03-23T06:16:29.686Z,27.10
2023-03-23T06:20:30.188Z,27.10
2023-03-23T06:24:30.162Z,27.10
2023-03-23T06:28:29.665Z,27.04
2023-03-23T06:32:29.690Z,27.07
2023-03-23T06:36:29.679Z,27.05
2023-03-23T06:40:29.669Z,27.01
2023-03-23T06:44:30.171Z,27.05
2023-03-23T06:48:30.201Z,27.03
2023-03-23T06:52:33.420Z,27.04
2023-03-23T06:56:31.003Z,27.15
2023-03-23T07:04:38.639Z,27.29
2023-03-23T07:08:30.695Z,27.66
2023-03-23T07:12:30.215Z,27.56
2023-03-23T07:20:30.217Z,27.65
2023-03-23T07:24:30.183Z,27.73
2023-03-23T07:28:30.257Z,27.84
2023-03-23T07:32:29.689Z,27.94
2023-03-23T07:36:29.838Z,27.98
2023-03-23T07:40:30.358Z,28.00
2023-03-23T07:44:30.224Z,28.12
2023-03-23T07:52:30.226Z,28.20
2023-03-23T07:56:30.210Z,28.17
2023-03-23T08:00:30.125Z,28.30
2023-03-23T08:04:30.202Z,28.36
2023-03-23T08:08:31.045Z,28.44
2023-03-23T08:12:30.204Z,28.43
2023-03-23T08:16:30.215Z,28.49
2023-03-23T08:20:31.018Z,28.49
2023-03-23T08:24:30.233Z,28.54
2023-03-23T08:28:33.124Z,28.67
2023-03-23T08:32:30.220Z,28.63
2023-03-23T08:36:30.205Z,28.75
2023-03-23T08:40:30.236Z,28.76
2023-03-23T08:44:30.218Z,28.79
2023-03-23T08:48:30.210Z,28.78
2023-03-23T08:52:31.064Z,28.79
2023-03-23T08:56:31.118Z,28.88
2023-03-23T09:00:34.444Z,28.85
2023-03-23T09:04:31.050Z,28.92
2023-03-23T09:08:30.721Z,29.01
2023-03-23T09:12:31.437Z,29.03
2023-03-23T09:16:30.731Z,29.06
2023-03-23T09:20:30.315Z,29.07
2023-03-23T09:24:30.728Z,29.08
2023-03-23T09:28:30.828Z,29.08
2023-03-23T09:32:30.735Z,29.16
2023-03-23T09:36:30.543Z,29.10
2023-03-23T09:40:30.789Z,29.13
2023-03-23T09:44:30.797Z,28.63
2023-03-23T09:48:30.753Z,28.57
2023-03-23T09:52:30.743Z,28.60
2023-03-23T09:56:31.737Z,28.72
2023-03-23T10:00:31.309Z,28.65
2023-03-23T10:04:31.245Z,28.74
2023-03-23T10:08:31.216Z,28.80
2023-03-23T10:12:31.744Z,28.79
2023-03-23T10:16:31.779Z,28.81
2023-03-23T10:20:31.749Z,28.72
2023-03-23T10:24:32.250Z,28.79
2023-03-23T10:28:32.252Z,28.86
2023-03-23T10:32:32.287Z,29.01
2023-03-23T10:36:31.759Z,28.96
2023-03-23T10:40:31.758Z,29.04
2023-03-23T10:44:31.761Z,28.88
2023-03-23T10:48:32.306Z,28.89
2023-03-23T10:52:32.265Z,28.77
2023-03-23T10:56:38.588Z,28.73
2023-03-23T11:00:33.276Z,28.66
2023-03-23T11:04:32.301Z,28.58
2023-03-23T11:08:32.249Z,28.62
2023-03-23T11:12:33.136Z,28.59
2023-03-23T11:16:33.128Z,28.52
2023-03-23T11:20:33.545Z,28.46
2023-03-23T11:24:33.281Z,28.37
2023-03-23T11:28:34.145Z,28.37
2023-03-23T11:32:33.299Z,28.35
2023-03-23T11:36:33.304Z,28.31
2023-03-23T11:40:33.285Z,28.29
2023-03-23T11:44:33.373Z,28.25
2023-03-23T11:48:33.784Z,28.25
2023-03-23T11:52:34.320Z,28.28
2023-03-23T11:56:33.788Z,28.25
2023-03-23T12:00:33.836Z,28.25
2023-03-23T12:04:34.355Z,28.25
2023-03-23T12:08:34.333Z,28.23
2023-03-23T12:12:34.430Z,28.24
2023-03-23T12:16:34.304Z,28.24
2023-03-23T12:20:41.280Z,28.21
2023-03-23T12:24:34.380Z,28.27
2023-03-23T12:28:34.797Z,28.28
2023-03-23T12:32:34.299Z,28.31
2023-03-23T12:36:34.329Z,28.30
2023-03-23T12:40:34.596Z,28.24
2023-03-23T12:44:34.302Z,28.27
2023-03-23T12:48:34.132Z,28.35
2023-03-23T12:52:35.181Z,28.32
2023-03-23T12:56:34.339Z,28.30
2023-03-23T13:00:34.310Z,28.26
2023-03-23T13:04:34.315Z,28.31
2023-03-23T13:08:34.322Z,28.27
2023-03-23T13:12:34.898Z,28.26
2023-03-23T13:16:34.876Z,28.30
2023-03-23T13:20:34.420Z,28.31
2023-03-23T13:24:34.820Z,28.30
2023-03-23T13:28:34.869Z,28.33
2023-03-23T13:32:36.958Z,28.23
2023-03-23T13:36:34.836Z,28.29
2023-03-23T13:40:34.731Z,28.29
2023-03-23T13:44:34.861Z,28.71
2023-03-23T13:48:35.344Z,28.96
2023-03-23T13:52:35.566Z,29.05
2023-03-23T13:56:35.341Z,29.00
2023-03-23T14:00:35.434Z,29.16
2023-03-23T14:04:36.337Z,29.15
2023-03-23T14:08:35.838Z,29.12
2023-03-23T14:12:36.341Z,29.29
2023-03-23T14:16:36.036Z,29.28
2023-03-23T14:20:36.354Z,29.47
2023-03-23T14:24:37.197Z,29.48
2023-03-23T16:32:58.017Z,28.80
